Time;durP1;ratioP1;P1;durP2;ratioP2;P2;SDS_P1;SDS_P2;PMS_P1;PMS_P2;Temp;Humidity;BMP_temperature;BMP_pressure;BME280_temperature;BME280_humidity;BME280_pressure;Samples;Min_cycle;Max_cycle;Signal;HPM_P1;HPM_P2
2021/08/04 00:00:16;;;;;;;14.68;8.20;;;;;;;14.79;93.54;100200.66;1724675;83;21615;-80
2021/08/04 00:02:43;;;;;;;12.55;7.90;;;;;;;14.78;94.28;100200.73;1709767;83;21131;-79
2021/08/04 00:05:10;;;;;;;8.55;7.28;;;;;;;14.74;93.91;100209.30;1714748;83;21073;-79
2021/08/04 00:07:37;;;;;;;13.62;8.20;;;;;;;14.75;94.62;100211.03;1693974;83;21234;-78
2021/08/04 00:10:05;;;;;;;12.88;7.67;;;;;;;14.75;94.89;100220.30;1724404;83;21017;-77
2021/08/04 00:12:33;;;;;;;11.88;8.50;;;;;;;14.74;95.23;100221.70;1724196;83;21389;-79
2021/08/04 00:15:00;;;;;;;10.35;8.38;;;;;;;14.69;95.66;100213.98;1716817;83;21139;-78
2021/08/04 00:17:27;;;;;;;7.45;5.67;;;;;;;14.68;95.02;100216.27;1724044;83;21038;-77
2021/08/04 00:19:54;;;;;;;14.50;9.30;;;;;;;14.68;95.10;100222.89;1720167;83;21508;-79
2021/08/04 00:22:21;;;;;;;13.75;8.58;;;;;;;14.65;94.61;100222.59;1699194;84;21133;-80
2021/08/04 00:24:48;;;;;;;10.23;6.92;;;;;;;14.65;95.05;100228.33;1720601;83;21541;-80
2021/08/04 00:27:16;;;;;;;12.68;8.28;;;;;;;14.64;95.54;100223.98;1720035;83;21142;-78
2021/08/04 00:29:43;;;;;;;7.78;6.17;;;;;;;14.62;95.56;100221.88;1719507;83;21093;-79
2021/08/04 00:32:10;;;;;;;16.37;8.35;;;;;;;14.59;95.80;100222.05;1719373;83;21100;-77
2021/08/04 00:34:38;;;;;;;11.33;7.90;;;;;;;14.57;96.01;100223.92;1718801;83;21065;-78
2021/08/04 00:37:06;;;;;;;12.33;7.85;;;;;;;14.53;96.31;100227.16;1714522;83;21021;-77
2021/08/04 00:39:33;;;;;;;11.70;8.25;;;;;;;14.52;96.75;100224.60;1719194;83;21132;-78
2021/08/04 00:42:00;;;;;;;14.87;7.10;;;;;;;14.53;96.89;100230.28;1698498;84;21101;-78
2021/08/04 00:44:28;;;;;;;14.73;9.13;;;;;;;14.52;96.42;100231.23;1699159;84;21571;-78
2021/08/04 00:46:58;;;;;;;15.23;8.65;;;;;;;14.48;96.23;100234.48;1699787;84;21555;-79
2021/08/04 00:49:26;;;;;;;7.97;6.20;;;;;;;14.46;96.45;100230.58;1699742;84;21022;-79
2021/08/04 00:51:53;;;;;;;15.18;8.95;;;;;;;14.46;96.61;100238.53;1699671;84;21747;-79
2021/08/04 00:54:20;;;;;;;11.57;6.95;;;;;;;14.42;95.73;100230.37;1687541;84;21076;-76
2021/08/04 00:56:47;;;;;;;9.43;6.75;;;;;;;14.39;95.64;100233.16;1662090;86;21081;-77
2021/08/04 00:59:14;;;;;;;12.80;8.70;;;;;;;14.36;95.93;100234.66;1662038;85;21599;-80
2021/08/04 01:01:52;;;;;;;9.63;7.62;;;;;;;14.34;94.84;100231.22;1671275;85;21117;-78
2021/08/04 01:04:24;;;;;;;15.72;8.85;;;;;;;14.30;94.83;100235.43;1634912;83;21810;-79
2021/08/04 01:07:25;;;;;;;13.70;8.85;;;;;;;14.23;94.93;100234.41;1693431;83;21139;-79
2021/08/04 01:10:13;;;;;;;7.28;5.58;;;;;;;14.17;93.56;100240.47;1676112;84;21090;-76
2021/08/04 01:12:46;;;;;;;9.15;6.40;;;;;;;14.14;94.00;100244.61;1693827;84;21047;-77
2021/08/04 01:15:15;;;;;;;18.45;9.35;;;;;;;14.11;94.66;100240.80;1693736;83;21115;-77
2021/08/04 01:17:46;;;;;;;12.37;8.50;;;;;;;14.08;93.89;100239.61;1694143;84;21817;-78
2021/08/04 01:20:16;;;;;;;;;;;;;;;14.05;94.80;100241.47;1717929;83;21058;-78
2021/08/04 01:23:04;;;;;;;14.95;9.88;;;;;;;14.02;95.45;100236.34;1717917;83;20192;-79
2021/08/04 01:25:51;;;;;;;15.48;8.85;;;;;;;14.02;95.83;100236.81;1717766;83;21098;-78
2021/08/04 01:28:27;;;;;;;12.15;8.75;;;;;;;13.99;96.22;100244.45;1718085;83;21086;-78
2021/08/04 01:31:05;;;;;;;11.55;8.30;;;;;;;13.95;96.61;100234.08;1719547;83;21144;-81
2021/08/04 01:33:34;;;;;;;10.00;7.45;;;;;;;13.95;96.17;100238.91;1720741;83;21868;-80
2021/08/04 01:36:01;;;;;;;16.57;7.92;;;;;;;13.93;96.45;100238.59;1718827;83;21087;-79
2021/08/04 01:38:28;;;;;;;12.50;8.08;;;;;;;13.91;96.37;100232.04;1717455;83;21039;-79
2021/08/04 01:40:54;;;;;;;12.33;8.13;;;;;;;13.89;96.35;100235.22;1717692;83;21070;-80
2021/08/04 01:43:24;;;;;;;14.00;8.65;;;;;;;13.88;96.77;100229.55;1717121;83;21082;-81
2021/08/04 01:45:54;;;;;;;9.65;8.20;;;;;;;13.88;96.95;100228.23;1717206;83;21073;-80
2021/08/04 01:48:21;;;;;;;15.78;8.75;;;;;;;13.86;97.08;100227.44;1717132;83;21138;-81
2021/08/04 01:50:48;;;;;;;11.57;8.30;;;;;;;13.88;97.36;100229.55;1717082;83;21035;-80
2021/08/04 01:53:16;;;;;;;10.93;7.40;;;;;;;13.84;97.10;100227.98;1717035;83;21050;-79
2021/08/04 01:55:44;;;;;;;13.93;8.98;;;;;;;13.82;97.42;100225.40;1695688;83;21145;-81
2021/08/04 01:58:11;;;;;;;10.23;8.28;;;;;;;13.80;97.30;100225.09;1695109;84;21779;-80
2021/08/04 02:00:38;;;;;;;12.40;8.05;;;;;;;13.79;97.39;100223.38;1695418;84;21694;-81
2021/08/04 02:03:05;;;;;;;14.00;7.97;;;;;;;13.76;97.54;100226.19;1695489;84;21088;-81
2021/08/04 02:05:32;;;;;;;11.57;5.95;;;;;;;13.72;96.66;100223.30;1695439;84;21101;-79
2021/08/04 02:08:27;;;;;;;18.52;8.18;;;;;;;13.70;96.73;100231.77;1695324;84;21133;-80
2021/08/04 02:11:18;;;;;;;12.50;9.05;;;;;;;13.69;96.34;100237.98;1694956;84;21091;-76
2021/08/04 02:13:56;;;;;;;;;;;;;;;13.66;96.27;100236.34;1697139;84;21041;-77
2021/08/04 02:16:56;;;;;;;15.72;9.18;;;;;;;13.63;96.67;100237.34;1659213;86;20284;-76
2021/08/04 02:19:33;;;;;;;13.55;8.58;;;;;;;13.58;97.11;100236.72;1690832;84;21068;-71
2021/08/04 02:22:06;;;;;;;7.72;5.70;;;;;;;13.55;96.55;100239.52;1693577;84;22024;-77
2021/08/04 02:24:36;;;;;;;10.93;7.33;;;;;;;13.56;96.79;100243.87;1683042;84;21168;-78
2021/08/04 02:27:03;;;;;;;10.43;7.55;;;;;;;13.55;96.84;100243.49;1694760;84;20994;-79
2021/08/04 02:29:34;;;;;;;9.15;5.78;;;;;;;13.52;95.62;100244.09;1695179;84;21077;-78
2021/08/04 02:32:01;;;;;;;12.20;7.72;;;;;;;13.51;95.94;100245.88;1694558;84;21057;-78
2021/08/04 02:34:29;;;;;;;10.32;7.28;;;;;;;13.50;95.62;100241.50;1694710;84;21528;-79
2021/08/04 02:36:56;;;;;;;12.25;7.12;;;;;;;13.47;96.04;100241.66;1694273;84;21501;-79
2021/08/04 02:39:24;;;;;;;10.53;7.83;;;;;;;13.46;96.26;100239.95;1678129;84;21100;-77
2021/08/04 02:41:51;;;;;;;10.40;6.30;;;;;;;13.46;96.40;100241.28;1678735;84;21073;-78
2021/08/04 02:44:18;;;;;;;9.08;7.80;;;;;;;13.39;96.47;100234.56;1694213;84;21775;-78
2021/08/04 02:46:47;;;;;;;12.25;8.15;;;;;;;13.43;96.38;100242.73;1694706;84;21131;-77
2021/08/04 02:49:16;;;;;;;11.55;7.47;;;;;;;13.42;96.23;100247.16;1694339;84;21011;-76
2021/08/04 02:51:45;;;;;;;11.90;8.80;;;;;;;13.45;96.52;100252.77;1694606;84;26053;-76
2021/08/04 02:54:13;;;;;;;12.00;7.78;;;;;;;13.44;96.78;100252.39;1702155;83;21059;-78
2021/08/04 02:56:40;;;;;;;10.98;7.85;;;;;;;13.43;96.48;100256.84;1644094;83;21035;-76
2021/08/04 02:59:07;;;;;;;12.45;7.90;;;;;;;13.46;96.84;100263.77;1716067;83;21585;-76
2021/08/04 03:01:34;;;;;;;13.13;7.20;;;;;;;13.49;96.69;100263.61;1715860;83;21129;-77
2021/08/04 03:04:01;;;;;;;8.63;7.25;;;;;;;13.50;96.70;100267.96;1716128;83;21528;-78
2021/08/04 03:06:29;;;;;;;11.60;7.62;;;;;;;13.50;96.86;100265.31;1716626;83;21038;-84
2021/08/04 03:08:55;;;;;;;12.05;7.40;;;;;;;13.51;97.03;100267.05;1717205;83;21108;-83
2021/08/04 03:11:22;;;;;;;10.13;7.80;;;;;;;13.54;97.21;100269.54;1716336;83;21121;-73
2021/08/04 03:13:49;;;;;;;7.72;5.28;;;;;;;13.59;97.15;100264.88;1705654;82;21069;-75
2021/08/04 03:16:18;;;;;;;12.13;7.62;;;;;;;13.63;97.02;100274.40;1701922;82;21168;-75
2021/08/04 03:18:46;;;;;;;11.53;8.70;;;;;;;13.71;96.74;100273.17;1705349;82;21054;-78
2021/08/04 03:21:13;;;;;;;11.90;5.78;;;;;;;13.81;96.58;100270.02;1728339;81;21065;-75
2021/08/04 03:23:42;;;;;;;11.95;7.50;;;;;;;13.92;96.79;100264.22;1716205;81;21144;-71
2021/08/04 03:26:08;;;;;;;7.00;5.05;;;;;;;14.02;96.02;100262.82;1726434;81;21070;-75
2021/08/04 03:28:36;;;;;;;10.78;7.20;;;;;;;14.18;95.94;100272.19;1702959;83;21025;-76
2021/08/04 03:31:03;;;;;;;9.93;7.62;;;;;;;14.37;96.15;100270.80;1719341;83;21104;-73
2021/08/04 03:33:30;;;;;;;6.78;5.37;;;;;;;14.66;95.52;100274.65;1716610;82;21064;-74
2021/08/04 03:35:56;;;;;;;10.95;7.42;;;;;;;15.19;94.33;100268.78;1711115;82;21850;-73
2021/08/04 03:38:24;;;;;;;9.18;6.55;;;;;;;15.85;92.69;100270.48;1718868;83;21065;-75
2021/08/04 03:40:51;;;;;;;7.87;5.78;;;;;;;16.41;88.64;100268.14;1728188;81;21109;-74
2021/08/04 03:43:18;;;;;;;11.90;7.05;;;;;;;17.01;87.36;100272.54;1687542;83;21092;-75
2021/08/04 03:45:46;;;;;;;10.43;6.60;;;;;;;17.65;85.02;100274.78;1695993;83;21072;-76
2021/08/04 03:48:14;;;;;;;11.80;6.45;;;;;;;18.26;81.96;100268.59;1675267;84;21691;-74
2021/08/04 03:50:42;;;;;;;14.30;6.47;;;;;;;18.79;80.07;100269.45;1693512;84;21028;-71
2021/08/04 03:53:09;;;;;;;9.10;6.30;;;;;;;19.27;77.21;100274.99;1693377;84;21601;-73
2021/08/04 03:55:36;;;;;;;12.33;6.62;;;;;;;19.60;75.45;100276.20;1688781;84;21616;-72
2021/08/04 03:58:03;;;;;;;7.95;5.95;;;;;;;19.54;74.46;100276.66;1688284;85;21100;-72
2021/08/04 04:00:30;;;;;;;11.78;6.50;;;;;;;19.63;72.86;100282.68;1717231;83;21409;-72
2021/08/04 04:02:58;;;;;;;10.18;6.92;;;;;;;19.91;73.49;100278.38;1688126;84;21105;-75
2021/08/04 04:05:25;;;;;;;9.98;6.28;;;;;;;20.14;72.47;100273.64;1688295;85;21714;-73
2021/08/04 04:07:52;;;;;;;11.63;7.22;;;;;;;20.42;71.49;100278.60;1688262;85;21522;-75
2021/08/04 04:10:20;;;;;;;11.00;7.12;;;;;;;20.50;70.76;100282.05;1688280;84;21096;-75
2021/08/04 04:12:47;;;;;;;8.90;6.33;;;;;;;20.40;70.00;100286.38;1688360;84;22137;-74
2021/08/04 04:15:14;;;;;;;7.75;6.08;;;;;;;20.38;70.41;100293.66;1688371;85;21065;-74
2021/08/04 04:17:41;;;;;;;10.38;6.75;;;;;;;20.36;68.89;100294.26;1688388;85;21057;-76
2021/08/04 04:20:08;;;;;;;8.10;6.80;;;;;;;20.23;67.28;100295.19;1688307;85;21065;-76
2021/08/04 04:22:36;;;;;;;9.05;5.72;;;;;;;20.18;69.67;100300.03;1688468;85;21194;-75
2021/08/04 04:25:04;;;;;;;9.95;5.65;;;;;;;20.23;68.64;100305.89;1688423;84;21525;-74
2021/08/04 04:27:31;;;;;;;10.78;6.85;;;;;;;20.43;68.53;100309.75;1688284;84;21128;-75
2021/08/04 04:29:58;;;;;;;8.70;6.45;;;;;;;20.70;68.50;100308.64;1688474;85;21053;-74
2021/08/04 04:32:25;;;;;;;10.32;7.50;;;;;;;20.97;66.26;100308.34;1688356;85;21044;-74
2021/08/04 04:34:52;;;;;;;10.13;7.70;;;;;;;21.25;67.03;100315.55;1688518;84;21089;-75
2021/08/04 04:37:21;;;;;;;15.93;7.60;;;;;;;21.55;65.59;100299.74;1688267;84;21117;-75
2021/08/04 04:39:48;;;;;;;12.05;7.72;;;;;;;21.82;64.41;100294.48;1688443;85;21113;-75
2021/08/04 04:42:15;;;;;;;8.63;6.20;;;;;;;22.28;62.62;100287.19;1688115;84;21057;-76
2021/08/04 04:44:42;;;;;;;7.87;6.50;;;;;;;22.66;61.74;100284.42;1688664;85;21516;-73
2021/08/04 04:47:10;;;;;;;14.13;6.70;;;;;;;23.14;61.05;100290.11;1687975;85;21580;-76
2021/08/04 04:49:36;;;;;;;7.33;5.85;;;;;;;23.72;59.63;100284.13;1688320;85;21462;-76
2021/08/04 04:52:04;;;;;;;6.90;5.87;;;;;;;24.16;58.60;100285.98;1687041;84;21065;-75
2021/08/04 04:54:31;;;;;;;9.88;6.53;;;;;;;24.43;58.03;100287.98;1691507;83;21555;-77
2021/08/04 04:56:59;;;;;;;8.78;6.12;;;;;;;24.65;56.87;100288.69;1688474;83;21124;-76
2021/08/04 04:59:26;;;;;;;10.60;5.72;;;;;;;24.89;55.88;100281.00;1687496;83;21531;-76
2021/08/04 05:01:53;;;;;;;9.30;4.67;;;;;;;25.00;55.99;100285.84;1699697;83;21106;-77
2021/08/04 05:04:20;;;;;;;10.18;5.35;;;;;;;25.05;55.64;100283.55;1694273;83;21639;-76
2021/08/04 05:06:46;;;;;;;7.53;5.10;;;;;;;25.08;55.40;100296.76;1713346;82;21131;-76
2021/08/04 05:09:15;;;;;;;7.95;5.12;;;;;;;25.07;54.68;100296.39;1718492;82;21531;-77
2021/08/04 05:11:42;;;;;;;8.63;4.50;;;;;;;25.24;54.66;100303.75;1724453;83;21076;-76
2021/08/04 05:14:09;;;;;;;8.45;4.08;;;;;;;25.46;53.90;100312.45;1739378;82;21772;-76
2021/08/04 05:16:37;;;;;;;9.28;4.42;;;;;;;25.63;50.57;100313.02;1715060;83;21057;-76
2021/08/04 05:19:04;;;;;;;12.43;5.00;;;;;;;25.82;51.61;100315.27;1691801;83;21549;-76
2021/08/04 05:21:31;;;;;;;10.98;5.10;;;;;;;26.08;51.61;100305.45;1732921;81;21080;-74
2021/08/04 05:23:58;;;;;;;19.90;5.03;;;;;;;26.29;51.04;100305.15;1699408;83;21048;-75
2021/08/04 05:26:25;;;;;;;13.68;5.20;;;;;;;26.47;50.83;100298.40;1681358;83;21141;-74
2021/08/04 05:28:52;;;;;;;10.98;4.92;;;;;;;26.52;49.00;100301.47;1677536;85;21054;-76
2021/08/04 05:31:20;;;;;;;13.72;7.10;;;;;;;26.41;49.56;100309.84;1676940;85;21081;-76
2021/08/04 05:33:48;;;;;;;10.10;6.40;;;;;;;26.43;48.55;100310.50;1693684;83;21064;-75
2021/08/04 05:36:15;;;;;;;17.12;7.70;;;;;;;26.36;48.54;100313.48;1690274;83;21117;-76
2021/08/04 05:38:41;;;;;;;26.80;6.25;;;;;;;26.24;48.16;100302.58;1677394;84;21854;-75
2021/08/04 05:41:09;;;;;;;24.40;7.22;;;;;;;25.95;46.57;100300.92;1682703;83;21136;-80
2021/08/04 05:43:36;;;;;;;50.00;10.43;;;;;;;25.69;46.45;100301.61;1702911;83;21045;-81
2021/08/04 05:46:02;;;;;;;55.83;12.37;;;;;;;25.66;47.29;100310.02;1702013;83;21567;-79
2021/08/04 05:48:30;;;;;;;37.78;9.35;;;;;;;25.63;47.13;100306.75;1704180;83;21474;-80
2021/08/04 05:50:57;;;;;;;37.38;8.95;;;;;;;25.47;47.37;100302.88;1701667;82;21467;-84
2021/08/04 05:53:24;;;;;;;57.00;11.10;;;;;;;25.60;47.93;100313.30;1709958;83;21042;-86
2021/08/04 05:55:51;;;;;;;75.28;12.45;;;;;;;25.91;46.91;100311.69;1703987;82;21098;-85
2021/08/04 05:58:20;;;;;;;65.05;13.43;;;;;;;25.94;46.58;100314.08;1721072;82;21564;-84
2021/08/04 06:00:47;;;;;;;64.82;11.03;;;;;;;25.99;46.58;100313.62;1683793;84;21065;-84
2021/08/04 06:03:13;;;;;;;32.17;7.55;;;;;;;26.18;45.98;100315.33;1679823;83;21193;-84
2021/08/04 06:05:42;;;;;;;40.25;8.30;;;;;;;26.46;44.18;100312.91;1682111;84;21096;-84
2021/08/04 06:08:10;;;;;;;46.00;8.58;;;;;;;26.85;44.54;100308.53;1697560;84;21060;-85
2021/08/04 06:10:39;;;;;;;50.55;9.53;;;;;;;27.29;43.31;100311.20;1691806;82;21104;-84
2021/08/04 06:13:07;;;;;;;48.40;9.08;;;;;;;27.67;42.07;100310.86;1699162;82;21084;-84
2021/08/04 06:15:34;;;;;;;39.40;7.20;;;;;;;27.90;41.18;100315.20;1698338;82;21160;-86
2021/08/04 06:18:03;;;;;;;40.00;7.87;;;;;;;28.14;41.15;100311.72;1688375;82;21037;-84
2021/08/04 06:20:29;;;;;;;19.95;4.40;;;;;;;28.49;39.73;100302.47;1671005;83;21056;-84
2021/08/04 06:22:56;;;;;;;16.50;4.78;;;;;;;28.76;38.45;100303.11;1702650;82;21072;-83
2021/08/04 06:25:24;;;;;;;18.02;3.83;;;;;;;28.87;38.24;100301.41;1689428;83;21442;-86
2021/08/04 06:27:52;;;;;;;9.30;3.25;;;;;;;28.96;37.68;100297.67;1717789;83;21148;-86
2021/08/04 06:30:20;;;;;;;4.92;2.75;;;;;;;29.06;37.07;100299.70;1716277;83;21563;-87
2021/08/04 06:32:47;;;;;;;6.08;3.65;;;;;;;29.10;37.49;100296.66;1710572;83;21588;-83
2021/08/04 06:35:13;;;;;;;9.18;3.15;;;;;;;29.22;38.23;100308.86;1709846;81;21095;-84
2021/08/04 06:37:40;;;;;;;11.15;3.10;;;;;;;29.42;37.98;100307.41;1724985;83;21029;-85
2021/08/04 06:40:10;;;;;;;6.20;2.75;;;;;;;29.63;35.32;100311.40;1722849;83;21166;-83
2021/08/04 06:42:37;;;;;;;6.78;2.90;;;;;;;29.61;34.99;100311.59;1723061;83;21140;-82
2021/08/04 06:45:05;;;;;;;9.48;2.90;;;;;;;29.62;34.48;100312.44;1724138;83;21092;-81
2021/08/04 06:47:32;;;;;;;7.12;3.02;;;;;;;29.83;34.22;100309.98;1715034;83;21061;-82
2021/08/04 06:50:01;;;;;;;8.05;2.98;;;;;;;30.16;33.92;100307.09;1717278;83;21056;-82
2021/08/04 06:52:29;;;;;;;5.72;3.02;;;;;;;30.25;33.82;100308.72;1703127;82;21136;-82
2021/08/04 06:54:56;;;;;;;5.87;2.40;;;;;;;30.16;33.59;100313.88;1708447;83;21097;-80
2021/08/04 06:57:22;;;;;;;6.47;2.17;;;;;;;30.13;30.88;100315.58;1720617;82;21045;-81
2021/08/04 06:59:49;;;;;;;7.67;2.20;;;;;;;30.03;28.07;100316.33;1688052;84;21190;-80
2021/08/04 07:02:17;;;;;;;5.33;1.90;;;;;;;30.16;28.59;100315.23;1738436;82;21006;-81
2021/08/04 07:04:44;;;;;;;5.25;2.27;;;;;;;30.37;27.16;100324.61;1713516;83;21080;-80
2021/08/04 07:07:14;;;;;;;6.92;2.83;;;;;;;30.39;28.56;100314.41;1702716;83;21505;-81
2021/08/04 07:09:42;;;;;;;16.05;5.00;;;;;;;30.54;31.18;100311.23;1696977;83;21101;-80
2021/08/04 07:12:10;;;;;;;3.20;1.72;;;;;;;30.54;30.31;100304.45;1701569;83;21084;-82
2021/08/04 07:14:38;;;;;;;5.25;2.15;;;;;;;30.50;27.36;100304.47;1723239;83;21018;-82
2021/08/04 07:17:07;;;;;;;4.50;1.87;;;;;;;30.64;27.18;100305.02;1699295;83;21096;-80
2021/08/04 07:19:34;;;;;;;6.10;1.90;;;;;;;30.78;25.91;100302.53;1721707;83;21012;-81
2021/08/04 07:22:01;;;;;;;5.97;2.20;;;;;;;30.85;26.00;100294.00;1715510;82;21064;-79
2021/08/04 07:24:28;;;;;;;3.22;1.82;;;;;;;31.22;27.09;100303.12;1714895;83;21068;-80
2021/08/04 07:26:55;;;;;;;8.38;2.40;;;;;;;31.06;26.57;100306.38;1708527;83;21061;-81
2021/08/04 07:29:22;;;;;;;4.55;2.35;;;;;;;31.38;27.15;100291.21;1716184;82;21994;-81
2021/08/04 07:31:49;;;;;;;5.08;2.27;;;;;;;31.38;27.15;100291.21;1710949;82;21085;-82
2021/08/04 07:34:22;;;;;;;5.87;2.17;;;;;;;31.56;27.49;100293.05;1701213;83;21028;-81
2021/08/04 07:36:49;;;;;;;5.20;1.80;;;;;;;31.54;25.58;100300.07;1707518;83;21061;-81
2021/08/04 07:39:17;;;;;;;4.40;1.65;;;;;;;31.36;25.39;100282.73;1711832;83;21088;-80
2021/08/04 07:41:45;;;;;;;3.30;2.10;;;;;;;30.44;24.57;100290.28;1691540;83;21191;-81
2021/08/04 07:44:15;;;;;;;2.60;1.52;;;;;;;30.44;24.57;100290.28;1709789;82;21535;-86
2021/08/04 07:46:42;;;;;;;6.92;1.82;;;;;;;30.12;24.81;100294.89;1713504;82;21009;-82
2021/08/04 07:49:09;;;;;;;3.35;2.00;;;;;;;30.14;25.18;100295.56;1708275;83;21061;-83
2021/08/04 07:51:36;;;;;;;6.62;2.17;;;;;;;29.96;25.21;100297.71;1708040;83;21064;-81
2021/08/04 07:54:03;;;;;;;2.85;2.00;;;;;;;30.14;25.60;100291.97;1711760;83;21183;-82
2021/08/04 07:56:32;;;;;;;6.35;1.70;;;;;;;30.30;25.39;100288.68;1712673;83;21088;-82
2021/08/04 07:59:02;;;;;;;4.17;1.85;;;;;;;30.31;24.62;100289.00;1708489;83;21216;-85
2021/08/04 08:01:29;;;;;;;2.72;1.95;;;;;;;30.37;24.67;100285.21;1707191;83;21597;-86
2021/08/04 08:03:56;;;;;;;6.17;1.92;;;;;;;30.37;24.90;100286.57;1713723;83;21046;-89
2021/08/04 08:06:23;;;;;;;4.80;1.82;;;;;;;30.08;25.10;100296.27;1712464;83;21082;-90
2021/08/04 08:08:51;;;;;;;8.13;1.98;;;;;;;30.08;25.10;100296.27;1691563;83;21196;-78
2021/08/04 08:11:18;;;;;;;3.12;1.82;;;;;;;30.13;25.90;100287.58;1688404;84;21105;-85
2021/08/04 08:13:48;;;;;;;4.90;2.30;;;;;;;30.57;24.92;100290.48;1701771;83;21001;-86
2021/08/04 08:16:15;;;;;;;6.58;2.02;;;;;;;30.86;25.07;100294.34;1713782;83;21025;-88
2021/08/04 08:18:42;;;;;;;4.65;1.80;;;;;;;30.86;25.07;100294.34;1711527;83;21068;-85
2021/08/04 08:21:11;;;;;;;4.03;2.02;;;;;;;30.89;24.88;100288.52;1721999;82;21060;-86
2021/08/04 08:23:38;;;;;;;4.90;1.60;;;;;;;31.23;25.14;100285.27;1722648;82;21091;-85
2021/08/04 08:26:05;;;;;;;5.05;1.77;;;;;;;31.29;22.93;100283.66;1713527;82;21008;-85
2021/08/04 08:28:32;;;;;;;4.12;1.80;;;;;;;30.84;23.78;100286.84;1714086;82;21052;-86
2021/08/04 08:31:01;;;;;;;1.92;1.60;;;;;;;30.50;23.61;100284.09;1669760;85;21552;-84
2021/08/04 08:33:28;;;;;;;3.72;2.05;;;;;;;30.41;23.91;100283.31;1669010;84;21095;-85
2021/08/04 08:35:58;;;;;;;9.28;2.20;;;;;;;30.80;23.66;100276.01;1672325;84;21040;-86
2021/08/04 08:38:26;;;;;;;7.55;1.80;;;;;;;30.90;23.33;100281.55;1672763;85;21097;-86
2021/08/04 08:40:55;;;;;;;2.85;1.80;;;;;;;30.57;23.98;100274.70;1666613;85;21021;-85
2021/08/04 08:43:23;;;;;;;6.87;1.82;;;;;;;30.57;23.98;100274.70;1667243;85;22248;-87
2021/08/04 08:45:53;;;;;;;3.17;2.00;;;;;;;30.28;24.18;100283.09;1672579;85;21057;-86
2021/08/04 08:48:20;;;;;;;6.35;2.10;;;;;;;30.82;24.15;100265.80;1679790;84;21604;-88
2021/08/04 08:50:51;;;;;;;4.47;2.10;;;;;;;30.82;24.15;100265.80;1697234;84;21142;-88
2021/08/04 08:53:20;;;;;;;2.90;1.90;;;;;;;31.45;23.05;100264.47;1682388;85;21068;-85
2021/08/04 08:55:49;;;;;;;3.98;1.65;;;;;;;32.17;22.99;100262.79;1647472;84;21080;-86
2021/08/04 08:58:16;;;;;;;3.77;2.20;;;;;;;32.17;22.99;100262.79;1675439;85;21016;-86
2021/08/04 09:00:43;;;;;;;3.90;1.75;;;;;;;31.95;22.79;100264.61;1675718;85;21008;-86
2021/08/04 09:03:11;;;;;;;2.83;1.80;;;;;;;31.44;23.68;100262.77;1675321;85;21096;-86
2021/08/04 09:05:54;;;;;;;3.42;1.92;;;;;;;31.37;23.60;100259.08;1699913;84;21669;-88
2021/08/04 09:08:28;;;;;;;5.53;2.52;;;;;;;31.68;23.26;100253.44;1685629;82;21179;-87
2021/08/04 09:10:56;;;;;;;6.35;2.40;;;;;;;31.94;24.29;100247.44;1691474;84;21063;-87
2021/08/04 09:13:32;;;;;;;4.42;2.37;;;;;;;32.02;24.24;100253.82;1686206;84;21101;-86
2021/08/04 09:16:09;;;;;;;5.70;2.67;;;;;;;31.42;25.24;100253.11;1691404;84;21074;-85
2021/08/04 09:18:47;;;;;;;8.63;3.00;;;;;;;30.93;25.98;100247.18;1704066;84;21142;-87
2021/08/04 09:21:16;;;;;;;3.67;2.20;;;;;;;30.91;27.10;100242.44;1700702;84;21749;-88
2021/08/04 09:23:53;;;;;;;7.25;2.80;;;;;;;31.10;26.40;100243.75;1663436;86;21023;-85
2021/08/04 09:26:25;;;;;;;5.60;2.42;;;;;;;31.30;25.25;100239.11;1671404;85;21077;-85
2021/08/04 09:29:00;;;;;;;14.35;2.75;;;;;;;31.58;25.35;100235.72;1663591;86;21124;-86
2021/08/04 09:31:54;;;;;;;5.00;2.47;;;;;;;31.71;25.18;100235.35;1688104;84;21068;-84
2021/08/04 09:34:38;;;;;;;3.67;2.30;;;;;;;31.71;24.65;100235.88;1722607;83;21140;-86
2021/08/04 09:37:14;;;;;;;18.40;5.25;;;;;;;31.83;24.74;100231.60;1692496;84;21054;-85
2021/08/04 09:39:47;;;;;;;3.40;2.12;;;;;;;32.18;25.25;100223.59;1700775;84;21006;-87
2021/08/04 09:42:14;;;;;;;7.95;2.58;;;;;;;32.40;24.67;100218.45;1708500;83;21042;-86
2021/08/04 09:44:55;;;;;;;5.92;2.37;;;;;;;32.68;24.18;100220.36;1711342;83;21018;-86
2021/08/04 09:47:24;;;;;;;7.17;2.20;;;;;;;33.03;23.60;100221.73;1694749;83;21483;-85
2021/08/04 09:49:59;;;;;;;3.05;2.40;;;;;;;32.85;23.78;100225.50;1701378;84;21038;-88
2021/08/04 09:52:27;;;;;;;4.85;2.70;;;;;;;32.35;24.22;100219.56;1712257;82;21028;-87
2021/08/04 09:55:17;;;;;;;;;;;;;;;31.97;24.19;100229.89;1719883;82;21150;-87
2021/08/04 09:57:48;;;;;;;4.10;2.30;;;;;;;32.05;24.34;100224.33;1716046;83;20153;-86
2021/08/04 10:00:19;;;;;;;6.72;2.30;;;;;;;31.94;24.76;100225.65;1688209;84;21134;-85
2021/08/04 10:02:48;;;;;;;3.98;2.30;;;;;;;31.63;25.36;100227.28;1691089;84;21140;-85
2021/08/04 10:05:28;;;;;;;7.42;2.58;;;;;;;31.66;25.53;100222.84;1687004;84;21019;-86
2021/08/04 10:08:07;;;;;;;7.85;2.85;;;;;;;31.87;25.62;100223.91;1710725;83;21153;-84
2021/08/04 10:10:39;;;;;;;5.80;2.42;;;;;;;31.93;25.41;100221.25;1699201;83;21106;-85
2021/08/04 10:13:14;;;;;;;4.10;2.10;;;;;;;31.88;24.32;100225.05;1712624;83;21102;-78
2021/08/04 10:15:43;;;;;;;3.95;2.30;;;;;;;31.84;24.68;100219.69;1703595;83;21099;-88
2021/08/04 10:18:19;;;;;;;9.55;3.08;;;;;;;32.07;24.56;100210.50;1712661;83;21142;-80
2021/08/04 10:20:47;;;;;;;8.80;2.20;;;;;;;32.59;24.50;100207.92;1709475;83;20990;-83
2021/08/04 10:26:14;;;;;;;6.50;2.33;;;;;;;32.93;23.95;100204.38;1788723;79;23260;-84
2021/08/04 10:28:42;;;;;;;5.05;2.25;;;;;;;32.61;23.68;100193.58;1751827;81;21684;-83
2021/08/04 10:31:10;;;;;;;9.50;2.30;;;;;;;31.89;24.48;100204.13;1751639;81;21118;-81
2021/08/04 10:33:41;;;;;;;14.28;3.45;;;;;;;31.29;25.18;100209.70;1750252;81;21627;-82
2021/08/04 10:36:12;;;;;;;4.17;2.33;;;;;;;30.80;26.13;100213.48;1696910;82;21037;-80
2021/08/04 10:38:47;;;;;;;4.85;2.00;;;;;;;30.48;26.58;100216.86;1740301;82;21588;-81
2021/08/04 10:41:22;;;;;;;5.08;2.27;;;;;;;30.54;26.28;100205.26;1724423;82;21100;-82
2021/08/04 10:43:56;;;;;;;3.60;2.10;;;;;;;30.67;26.37;100216.34;1714694;81;21756;-81
2021/08/04 10:46:37;;;;;;;4.05;2.52;;;;;;;30.74;25.98;100213.20;1686383;84;21293;-80
2021/08/04 10:49:10;;;;;;;3.52;2.17;;;;;;;30.99;26.18;100210.25;1734450;82;22351;-83
2021/08/04 10:51:45;;;;;;;7.58;3.20;;;;;;;31.02;26.41;100203.59;1738670;82;21037;-82
2021/08/04 10:54:19;;;;;;;4.28;2.50;;;;;;;30.98;26.16;100197.67;1723164;82;21092;-80
2021/08/04 10:56:55;;;;;;;4.25;2.08;;;;;;;31.15;25.68;100199.17;1688278;84;21145;-82
2021/08/04 10:59:27;;;;;;;3.30;2.45;;;;;;;31.22;25.78;100197.03;1671169;84;21638;-81
2021/08/04 11:02:07;;;;;;;6.55;2.12;;;;;;;31.12;25.38;100199.53;1684751;83;21045;-81
2021/08/04 11:04:40;;;;;;;5.62;2.02;;;;;;;31.22;25.90;100195.67;1697732;84;21128;-82
2021/08/04 11:07:15;;;;;;;2.55;1.87;;;;;;;31.34;25.47;100191.45;1692172;82;21111;-82
2021/08/04 11:09:51;;;;;;;6.85;2.40;;;;;;;31.38;25.70;100194.61;1699180;84;21085;-83
2021/08/04 11:12:21;;;;;;;3.00;2.12;;;;;;;31.23;25.61;100194.66;1679012;84;21116;-83
2021/08/04 11:14:56;;;;;;;5.33;2.20;;;;;;;30.98;25.73;100194.95;1698538;84;21045;-81
2021/08/04 11:17:26;;;;;;;2.75;2.00;;;;;;;30.85;25.64;100197.48;1707421;84;21040;-82
2021/08/04 11:20:08;;;;;;;6.73;2.30;;;;;;;30.74;26.69;100197.42;1680504;85;21072;-82
2021/08/04 11:22:43;;;;;;;2.40;2.10;;;;;;;30.80;26.42;100200.73;1691419;84;21124;-81
2021/08/04 11:25:38;;;;;;;7.12;2.25;;;;;;;30.51;25.99;100194.77;1695151;83;21039;-81
2021/08/04 11:28:11;;;;;;;5.55;2.33;;;;;;;30.64;26.35;100188.16;1678653;84;21096;-80
2021/08/04 11:30:46;;;;;;;2.00;1.50;;;;;;;30.76;25.79;100189.05;1722450;83;22326;-80
2021/08/04 11:33:25;;;;;;;3.77;2.20;;;;;;;30.98;25.22;100188.16;1697720;83;21091;-82
2021/08/04 11:36:12;;;;;;;6.20;2.10;;;;;;;31.23;25.39;100191.94;1688843;84;21129;-83